sensor_id;sensor_type;location;lat;lon;timestamp;P1;durP1;ratioP1;P2;durP2;ratioP2
54805;SDS011;62866;55.776;37.496;2022-08-14T00:00:12;20.02;;;7.00;;
54805;SDS011;62866;55.776;37.496;2022-08-14T00:02:40;20.50;;;8.35;;
54805;SDS011;62866;55.776;37.496;2022-08-14T00:05:10;28.83;;;7.95;;
54805;SDS011;62866;55.776;37.496;2022-08-14T00:07:37;16.73;;;7.38;;
54805;SDS011;62866;55.776;37.496;2022-08-14T00:10:04;21.75;;;6.97;;
54805;SDS011;62866;55.776;37.496;2022-08-14T00:12:32;14.32;;;7.05;;
54805;SDS011;62866;55.776;37.496;2022-08-14T00:15:00;16.23;;;7.13;;
54805;SDS011;62866;55.776;37.496;2022-08-14T00:17:28;26.90;;;7.57;;
54805;SDS011;62866;55.776;37.496;2022-08-14T00:19:54;13.95;;;6.63;;
54805;SDS011;62866;55.776;37.496;2022-08-14T00:22:19;18.98;;;7.03;;
54805;SDS011;62866;55.776;37.496;2022-08-14T00:24:45;21.23;;;6.40;;
54805;SDS011;62866;55.776;37.496;2022-08-14T00:27:10;16.48;;;7.15;;
54805;SDS011;62866;55.776;37.496;2022-08-14T00:29:36;14.90;;;7.25;;
54805;SDS011;62866;55.776;37.496;2022-08-14T00:32:02;14.52;;;6.60;;
54805;SDS011;62866;55.776;37.496;2022-08-14T00:34:27;17.35;;;7.47;;
54805;SDS011;62866;55.776;37.496;2022-08-14T00:36:53;14.02;;;6.85;;
54805;SDS011;62866;55.776;37.496;2022-08-14T00:39:19;14.98;;;6.38;;
54805;SDS011;62866;55.776;37.496;2022-08-14T00:41:45;15.27;;;6.47;;
54805;SDS011;62866;55.776;37.496;2022-08-14T00:44:12;13.65;;;6.20;;
54805;SDS011;62866;55.776;37.496;2022-08-14T00:46:38;11.73;;;7.07;;
54805;SDS011;62866;55.776;37.496;2022-08-14T00:49:05;12.70;;;6.45;;
54805;SDS011;62866;55.776;37.496;2022-08-14T00:51:32;15.05;;;6.70;;
54805;SDS011;62866;55.776;37.496;2022-08-14T00:53:58;15.25;;;6.43;;
54805;SDS011;62866;55.776;37.496;2022-08-14T00:56:26;11.75;;;6.18;;
54805;SDS011;62866;55.776;37.496;2022-08-14T00:58:52;12.70;;;6.03;;
54805;SDS011;62866;55.776;37.496;2022-08-14T01:01:19;8.57;;;5.93;;
54805;SDS011;62866;55.776;37.496;2022-08-14T01:03:45;15.63;;;5.75;;
54805;SDS011;62866;55.776;37.496;2022-08-14T01:06:11;15.38;;;6.28;;
54805;SDS011;62866;55.776;37.496;2022-08-14T01:08:42;13.80;;;5.65;;
54805;SDS011;62866;55.776;37.496;2022-08-14T01:11:11;10.68;;;5.78;;
54805;SDS011;62866;55.776;37.496;2022-08-14T01:13:40;19.67;;;7.30;;
54805;SDS011;62866;55.776;37.496;2022-08-14T01:16:15;13.25;;;6.90;;
54805;SDS011;62866;55.776;37.496;2022-08-14T01:18:41;16.67;;;6.30;;
54805;SDS011;62866;55.776;37.496;2022-08-14T01:21:29;19.90;;;6.35;;
54805;SDS011;62866;55.776;37.496;2022-08-14T01:23:57;13.38;;;6.68;;
54805;SDS011;62866;55.776;37.496;2022-08-14T01:26:24;13.30;;;5.88;;
54805;SDS011;62866;55.776;37.496;2022-08-14T01:28:51;18.27;;;6.07;;
54805;SDS011;62866;55.776;37.496;2022-08-14T01:31:32;12.95;;;6.50;;
54805;SDS011;62866;55.776;37.496;2022-08-14T01:34:01;12.60;;;6.22;;
54805;SDS011;62866;55.776;37.496;2022-08-14T01:36:29;13.27;;;6.30;;
54805;SDS011;62866;55.776;37.496;2022-08-14T01:39:03;12.30;;;6.35;;
54805;SDS011;62866;55.776;37.496;2022-08-14T01:41:33;10.32;;;5.78;;
54805;SDS011;62866;55.776;37.496;2022-08-14T01:44:01;14.23;;;5.82;;
54805;SDS011;62866;55.776;37.496;2022-08-14T01:46:31;16.70;;;7.30;;
54805;SDS011;62866;55.776;37.496;2022-08-14T01:48:59;11.70;;;5.85;;
54805;SDS011;62866;55.776;37.496;2022-08-14T01:51:26;23.55;;;7.07;;
54805;SDS011;62866;55.776;37.496;2022-08-14T01:53:57;20.55;;;6.45;;
54805;SDS011;62866;55.776;37.496;2022-08-14T01:56:28;14.13;;;5.93;;
54805;SDS011;62866;55.776;37.496;2022-08-14T01:59:09;14.90;;;6.50;;
54805;SDS011;62866;55.776;37.496;2022-08-14T02:01:45;17.67;;;6.82;;
54805;SDS011;62866;55.776;37.496;2022-08-14T02:04:13;16.88;;;6.25;;
54805;SDS011;62866;55.776;37.496;2022-08-14T02:06:39;15.75;;;6.63;;
54805;SDS011;62866;55.776;37.496;2022-08-14T02:09:05;23.25;;;7.60;;
54805;SDS011;62866;55.776;37.496;2022-08-14T02:11:33;19.30;;;8.05;;
54805;SDS011;62866;55.776;37.496;2022-08-14T02:14:17;14.70;;;5.85;;
54805;SDS011;62866;55.776;37.496;2022-08-14T02:16:45;11.73;;;6.03;;
54805;SDS011;62866;55.776;37.496;2022-08-14T02:19:18;13.07;;;5.50;;
54805;SDS011;62866;55.776;37.496;2022-08-14T02:21:52;17.48;;;6.88;;
54805;SDS011;62866;55.776;37.496;2022-08-14T02:24:20;13.77;;;6.68;;
54805;SDS011;62866;55.776;37.496;2022-08-14T02:26:48;16.95;;;6.10;;
54805;SDS011;62866;55.776;37.496;2022-08-14T02:29:17;11.43;;;6.10;;
54805;SDS011;62866;55.776;37.496;2022-08-14T02:31:47;16.52;;;5.68;;
54805;SDS011;62866;55.776;37.496;2022-08-14T02:34:16;14.95;;;6.22;;
54805;SDS011;62866;55.776;37.496;2022-08-14T02:36:43;12.23;;;6.05;;
54805;SDS011;62866;55.776;37.496;2022-08-14T02:39:10;10.68;;;6.63;;
54805;SDS011;62866;55.776;37.496;2022-08-14T02:41:36;10.52;;;5.57;;
54805;SDS011;62866;55.776;37.496;2022-08-14T02:44:03;17.20;;;6.70;;
54805;SDS011;62866;55.776;37.496;2022-08-14T02:46:31;15.15;;;5.85;;
54805;SDS011;62866;55.776;37.496;2022-08-14T02:48:56;14.07;;;6.10;;
54805;SDS011;62866;55.776;37.496;2022-08-14T02:51:22;23.15;;;6.07;;
54805;SDS011;62866;55.776;37.496;2022-08-14T02:53:48;21.95;;;5.90;;
54805;SDS011;62866;55.776;37.496;2022-08-14T02:56:15;18.98;;;6.30;;
54805;SDS011;62866;55.776;37.496;2022-08-14T02:58:44;18.10;;;6.95;;
54805;SDS011;62866;55.776;37.496;2022-08-14T03:01:11;12.07;;;6.05;;
54805;SDS011;62866;55.776;37.496;2022-08-14T03:03:39;29.63;;;7.25;;
54805;SDS011;62866;55.776;37.496;2022-08-14T03:06:06;12.82;;;6.25;;
54805;SDS011;62866;55.776;37.496;2022-08-14T03:08:34;9.13;;;5.88;;
54805;SDS011;62866;55.776;37.496;2022-08-14T03:11:05;17.80;;;8.65;;
54805;SDS011;62866;55.776;37.496;2022-08-14T03:13:34;16.52;;;6.03;;
54805;SDS011;62866;55.776;37.496;2022-08-14T03:16:01;9.15;;;5.65;;
54805;SDS011;62866;55.776;37.496;2022-08-14T03:18:28;9.25;;;5.72;;
54805;SDS011;62866;55.776;37.496;2022-08-14T03:20:54;9.90;;;5.40;;
54805;SDS011;62866;55.776;37.496;2022-08-14T03:23:19;13.07;;;6.75;;
54805;SDS011;62866;55.776;37.496;2022-08-14T03:25:45;10.23;;;6.07;;
54805;SDS011;62866;55.776;37.496;2022-08-14T03:28:11;13.98;;;6.82;;
54805;SDS011;62866;55.776;37.496;2022-08-14T03:30:38;9.90;;;5.45;;
54805;SDS011;62866;55.776;37.496;2022-08-14T03:33:05;8.65;;;5.72;;
54805;SDS011;62866;55.776;37.496;2022-08-14T03:35:32;6.88;;;4.80;;
54805;SDS011;62866;55.776;37.496;2022-08-14T03:38:09;8.20;;;5.43;;
54805;SDS011;62866;55.776;37.496;2022-08-14T03:40:37;6.80;;;5.35;;
54805;SDS011;62866;55.776;37.496;2022-08-14T03:43:05;8.73;;;5.68;;
54805;SDS011;62866;55.776;37.496;2022-08-14T03:45:32;9.52;;;5.70;;
54805;SDS011;62866;55.776;37.496;2022-08-14T03:48:02;8.18;;;5.20;;
54805;SDS011;62866;55.776;37.496;2022-08-14T03:50:33;7.25;;;5.60;;
54805;SDS011;62866;55.776;37.496;2022-08-14T03:53:00;8.25;;;5.47;;
54805;SDS011;62866;55.776;37.496;2022-08-14T03:55:26;8.73;;;6.03;;
54805;SDS011;62866;55.776;37.496;2022-08-14T03:57:52;9.05;;;5.95;;
54805;SDS011;62866;55.776;37.496;2022-08-14T04:00:20;9.20;;;5.80;;
54805;SDS011;62866;55.776;37.496;2022-08-14T04:02:45;7.78;;;5.88;;
54805;SDS011;62866;55.776;37.496;2022-08-14T04:05:11;9.13;;;5.65;;
54805;SDS011;62866;55.776;37.496;2022-08-14T04:07:37;8.52;;;5.55;;
54805;SDS011;62866;55.776;37.496;2022-08-14T04:10:04;7.97;;;6.18;;
54805;SDS011;62866;55.776;37.496;2022-08-14T04:12:31;10.25;;;5.50;;
54805;SDS011;62866;55.776;37.496;2022-08-14T04:14:58;14.15;;;6.75;;
54805;SDS011;62866;55.776;37.496;2022-08-14T04:17:24;8.80;;;6.10;;
54805;SDS011;62866;55.776;37.496;2022-08-14T04:19:52;7.53;;;5.80;;
54805;SDS011;62866;55.776;37.496;2022-08-14T04:22:17;7.25;;;5.93;;
54805;SDS011;62866;55.776;37.496;2022-08-14T04:24:44;12.90;;;6.40;;
54805;SDS011;62866;55.776;37.496;2022-08-14T04:27:10;7.38;;;6.38;;
54805;SDS011;62866;55.776;37.496;2022-08-14T04:29:41;12.32;;;6.22;;
54805;SDS011;62866;55.776;37.496;2022-08-14T04:32:08;9.13;;;6.50;;
54805;SDS011;62866;55.776;37.496;2022-08-14T04:34:35;10.52;;;6.93;;
54805;SDS011;62866;55.776;37.496;2022-08-14T04:37:04;9.05;;;5.60;;
54805;SDS011;62866;55.776;37.496;2022-08-14T04:39:49;9.88;;;6.40;;
54805;SDS011;62866;55.776;37.496;2022-08-14T04:42:34;8.80;;;6.35;;
54805;SDS011;62866;55.776;37.496;2022-08-14T04:45:20;10.30;;;5.60;;
54805;SDS011;62866;55.776;37.496;2022-08-14T04:47:47;10.77;;;6.40;;
54805;SDS011;62866;55.776;37.496;2022-08-14T04:50:33;10.55;;;6.65;;
54805;SDS011;62866;55.776;37.496;2022-08-14T04:52:59;9.55;;;5.65;;
54805;SDS011;62866;55.776;37.496;2022-08-14T04:55:26;8.60;;;5.95;;
54805;SDS011;62866;55.776;37.496;2022-08-14T04:57:51;8.95;;;5.20;;
54805;SDS011;62866;55.776;37.496;2022-08-14T05:00:17;8.95;;;6.10;;
54805;SDS011;62866;55.776;37.496;2022-08-14T05:02:43;7.28;;;5.57;;
54805;SDS011;62866;55.776;37.496;2022-08-14T05:05:08;15.00;;;6.60;;
54805;SDS011;62866;55.776;37.496;2022-08-14T05:07:34;7.18;;;5.28;;
54805;SDS011;62866;55.776;37.496;2022-08-14T05:10:00;7.30;;;5.15;;
54805;SDS011;62866;55.776;37.496;2022-08-14T05:12:26;9.13;;;5.78;;
54805;SDS011;62866;55.776;37.496;2022-08-14T05:14:52;6.82;;;5.38;;
54805;SDS011;62866;55.776;37.496;2022-08-14T05:17:18;9.25;;;5.72;;
54805;SDS011;62866;55.776;37.496;2022-08-14T05:19:43;6.90;;;4.68;;
54805;SDS011;62866;55.776;37.496;2022-08-14T05:22:09;5.95;;;4.53;;
54805;SDS011;62866;55.776;37.496;2022-08-14T05:24:34;5.38;;;4.38;;
54805;SDS011;62866;55.776;37.496;2022-08-14T05:27:00;6.57;;;4.72;;
54805;SDS011;62866;55.776;37.496;2022-08-14T05:29:27;7.28;;;4.97;;
54805;SDS011;62866;55.776;37.496;2022-08-14T05:31:53;6.53;;;3.67;;
54805;SDS011;62866;55.776;37.496;2022-08-14T05:34:20;6.85;;;4.53;;
54805;SDS011;62866;55.776;37.496;2022-08-14T05:36:47;7.55;;;4.70;;
54805;SDS011;62866;55.776;37.496;2022-08-14T05:39:13;6.93;;;4.68;;
54805;SDS011;62866;55.776;37.496;2022-08-14T05:41:39;7.57;;;4.90;;
54805;SDS011;62866;55.776;37.496;2022-08-14T05:44:04;8.00;;;5.00;;
54805;SDS011;62866;55.776;37.496;2022-08-14T05:46:30;5.55;;;4.75;;
54805;SDS011;62866;55.776;37.496;2022-08-14T05:48:56;6.25;;;5.03;;
54805;SDS011;62866;55.776;37.496;2022-08-14T05:51:23;7.93;;;4.97;;
54805;SDS011;62866;55.776;37.496;2022-08-14T05:53:49;5.50;;;4.20;;
54805;SDS011;62866;55.776;37.496;2022-08-14T05:56:15;6.40;;;3.55;;
54805;SDS011;62866;55.776;37.496;2022-08-14T05:58:41;5.40;;;4.22;;
54805;SDS011;62866;55.776;37.496;2022-08-14T06:01:06;6.82;;;4.95;;
54805;SDS011;62866;55.776;37.496;2022-08-14T06:03:33;4.40;;;3.80;;
54805;SDS011;62866;55.776;37.496;2022-08-14T06:05:59;4.18;;;3.78;;
54805;SDS011;62866;55.776;37.496;2022-08-14T06:08:26;5.65;;;3.80;;
54805;SDS011;62866;55.776;37.496;2022-08-14T06:10:56;7.57;;;3.40;;
54805;SDS011;62866;55.776;37.496;2022-08-14T06:13:30;4.78;;;3.50;;
54805;SDS011;62866;55.776;37.496;2022-08-14T06:15:57;4.85;;;4.18;;
54805;SDS011;62866;55.776;37.496;2022-08-14T06:18:23;7.75;;;4.10;;
54805;SDS011;62866;55.776;37.496;2022-08-14T06:20:49;5.20;;;3.78;;
54805;SDS011;62866;55.776;37.496;2022-08-14T06:23:14;3.42;;;3.13;;
54805;SDS011;62866;55.776;37.496;2022-08-14T06:25:40;4.20;;;3.38;;
54805;SDS011;62866;55.776;37.496;2022-08-14T06:28:06;6.55;;;2.88;;
54805;SDS011;62866;55.776;37.496;2022-08-14T06:30:32;5.78;;;3.17;;
54805;SDS011;62866;55.776;37.496;2022-08-14T06:32:58;3.42;;;2.97;;
54805;SDS011;62866;55.776;37.496;2022-08-14T06:35:24;2.22;;;2.03;;
54805;SDS011;62866;55.776;37.496;2022-08-14T06:37:55;4.93;;;3.75;;
54805;SDS011;62866;55.776;37.496;2022-08-14T06:40:24;5.68;;;3.08;;
54805;SDS011;62866;55.776;37.496;2022-08-14T06:42:49;3.45;;;3.13;;
54805;SDS011;62866;55.776;37.496;2022-08-14T06:45:16;2.78;;;2.30;;
54805;SDS011;62866;55.776;37.496;2022-08-14T06:47:42;3.10;;;2.80;;
54805;SDS011;62866;55.776;37.496;2022-08-14T06:50:10;5.20;;;3.17;;
54805;SDS011;62866;55.776;37.496;2022-08-14T06:52:39;4.80;;;2.72;;
54805;SDS011;62866;55.776;37.496;2022-08-14T06:55:05;3.30;;;2.88;;
54805;SDS011;62866;55.776;37.496;2022-08-14T06:57:39;3.30;;;2.50;;
54805;SDS011;62866;55.776;37.496;2022-08-14T07:00:10;3.63;;;2.40;;
54805;SDS011;62866;55.776;37.496;2022-08-14T07:02:40;4.15;;;3.45;;
54805;SDS011;62866;55.776;37.496;2022-08-14T07:05:25;5.53;;;3.83;;
54805;SDS011;62866;55.776;37.496;2022-08-14T07:08:27;3.22;;;2.95;;
54805;SDS011;62866;55.776;37.496;2022-08-14T07:10:54;4.05;;;3.33;;
54805;SDS011;62866;55.776;37.496;2022-08-14T07:13:22;3.50;;;2.50;;
54805;SDS011;62866;55.776;37.496;2022-08-14T07:15:49;5.18;;;3.20;;
54805;SDS011;62866;55.776;37.496;2022-08-14T07:18:22;8.13;;;3.30;;
54805;SDS011;62866;55.776;37.496;2022-08-14T07:20:52;7.60;;;2.90;;
54805;SDS011;62866;55.776;37.496;2022-08-14T07:23:19;6.00;;;2.92;;
54805;SDS011;62866;55.776;37.496;2022-08-14T07:25:45;3.22;;;2.92;;
54805;SDS011;62866;55.776;37.496;2022-08-14T07:28:11;3.78;;;2.80;;
54805;SDS011;62866;55.776;37.496;2022-08-14T07:30:48;4.20;;;2.72;;
54805;SDS011;62866;55.776;37.496;2022-08-14T07:33:15;3.38;;;3.08;;
54805;SDS011;62866;55.776;37.496;2022-08-14T07:35:41;4.18;;;3.42;;
54805;SDS011;62866;55.776;37.496;2022-08-14T07:38:06;4.90;;;3.13;;
54805;SDS011;62866;55.776;37.496;2022-08-14T07:40:32;4.07;;;2.75;;
54805;SDS011;62866;55.776;37.496;2022-08-14T07:42:59;3.63;;;3.33;;
54805;SDS011;62866;55.776;37.496;2022-08-14T07:45:26;3.83;;;3.17;;
54805;SDS011;62866;55.776;37.496;2022-08-14T07:47:52;5.75;;;3.35;;
54805;SDS011;62866;55.776;37.496;2022-08-14T07:50:21;4.80;;;3.80;;
54805;SDS011;62866;55.776;37.496;2022-08-14T07:52:48;6.03;;;3.60;;
54805;SDS011;62866;55.776;37.496;2022-08-14T07:55:14;5.97;;;4.20;;
54805;SDS011;62866;55.776;37.496;2022-08-14T07:57:42;5.18;;;4.40;;
54805;SDS011;62866;55.776;37.496;2022-08-14T08:00:09;4.07;;;3.67;;
54805;SDS011;62866;55.776;37.496;2022-08-14T08:02:38;4.35;;;3.67;;
54805;SDS011;62866;55.776;37.496;2022-08-14T08:05:06;4.68;;;3.17;;
54805;SDS011;62866;55.776;37.496;2022-08-14T08:07:32;4.57;;;4.03;;
54805;SDS011;62866;55.776;37.496;2022-08-14T08:09:59;5.15;;;4.30;;
54805;SDS011;62866;55.776;37.496;2022-08-14T08:12:57;5.35;;;4.25;;
54805;SDS011;62866;55.776;37.496;2022-08-14T08:15:29;6.85;;;4.00;;
54805;SDS011;62866;55.776;37.496;2022-08-14T08:17:57;6.80;;;4.38;;
54805;SDS011;62866;55.776;37.496;2022-08-14T08:20:23;6.28;;;3.97;;
54805;SDS011;62866;55.776;37.496;2022-08-14T08:22:51;4.55;;;3.85;;
54805;SDS011;62866;55.776;37.496;2022-08-14T08:25:26;4.38;;;3.90;;
54805;SDS011;62866;55.776;37.496;2022-08-14T08:27:57;3.78;;;3.42;;
54805;SDS011;62866;55.776;37.496;2022-08-14T08:30:25;6.22;;;4.15;;
54805;SDS011;62866;55.776;37.496;2022-08-14T08:32:52;6.65;;;5.38;;
54805;SDS011;62866;55.776;37.496;2022-08-14T08:35:23;9.30;;;5.07;;
54805;SDS011;62866;55.776;37.496;2022-08-14T08:37:52;10.48;;;9.77;;
54805;SDS011;62866;55.776;37.496;2022-08-14T08:40:28;5.22;;;4.70;;
54805;SDS011;62866;55.776;37.496;2022-08-14T08:48:26;11.73;;;4.80;;
54805;SDS011;62866;55.776;37.496;2022-08-14T08:50:57;4.22;;;3.83;;
54805;SDS011;62866;55.776;37.496;2022-08-14T08:53:31;6.03;;;5.38;;
54805;SDS011;62866;55.776;37.496;2022-08-14T08:55:58;5.78;;;4.45;;
54805;SDS011;62866;55.776;37.496;2022-08-14T08:58:24;6.15;;;4.38;;
54805;SDS011;62866;55.776;37.496;2022-08-14T09:00:51;5.43;;;3.75;;
54805;SDS011;62866;55.776;37.496;2022-08-14T09:03:28;5.80;;;4.20;;
54805;SDS011;62866;55.776;37.496;2022-08-14T09:05:55;5.55;;;4.22;;
54805;SDS011;62866;55.776;37.496;2022-08-14T09:08:26;4.05;;;3.65;;
54805;SDS011;62866;55.776;37.496;2022-08-14T09:10:54;4.80;;;4.32;;
54805;SDS011;62866;55.776;37.496;2022-08-14T09:13:21;6.97;;;4.22;;
54805;SDS011;62866;55.776;37.496;2022-08-14T09:15:50;7.57;;;4.60;;
54805;SDS011;62866;55.776;37.496;2022-08-14T09:18:17;7.13;;;5.20;;
54805;SDS011;62866;55.776;37.496;2022-08-14T09:20:47;5.65;;;4.95;;
54805;SDS011;62866;55.776;37.496;2022-08-14T09:23:14;5.40;;;4.53;;
54805;SDS011;62866;55.776;37.496;2022-08-14T09:25:42;9.50;;;4.30;;
54805;SDS011;62866;55.776;37.496;2022-08-14T09:28:10;6.55;;;4.18;;
54805;SDS011;62866;55.776;37.496;2022-08-14T09:30:37;7.07;;;4.70;;
54805;SDS011;62866;55.776;37.496;2022-08-14T09:47:04;7.13;;;4.22;;
54805;SDS011;62866;55.776;37.496;2022-08-14T09:49:34;4.75;;;4.32;;
54805;SDS011;62866;55.776;37.496;2022-08-14T09:52:02;6.28;;;4.57;;
54805;SDS011;62866;55.776;37.496;2022-08-14T09:54:36;6.25;;;4.25;;
54805;SDS011;62866;55.776;37.496;2022-08-14T09:57:02;5.43;;;4.80;;
54805;SDS011;62866;55.776;37.496;2022-08-14T09:59:38;8.25;;;4.03;;
54805;SDS011;62866;55.776;37.496;2022-08-14T10:02:16;7.78;;;4.78;;
54805;SDS011;62866;55.776;37.496;2022-08-14T10:04:57;5.03;;;4.50;;
54805;SDS011;62866;55.776;37.496;2022-08-14T10:07:29;7.55;;;5.30;;
54805;SDS011;62866;55.776;37.496;2022-08-14T10:09:56;5.72;;;5.18;;
54805;SDS011;62866;55.776;37.496;2022-08-14T10:12:22;5.85;;;4.60;;
54805;SDS011;62866;55.776;37.496;2022-08-14T10:14:48;6.38;;;4.05;;
54805;SDS011;62866;55.776;37.496;2022-08-14T10:17:20;5.88;;;4.47;;
54805;SDS011;62866;55.776;37.496;2022-08-14T10:19:50;6.22;;;4.53;;
54805;SDS011;62866;55.776;37.496;2022-08-14T10:22:22;3.80;;;3.50;;
54805;SDS011;62866;55.776;37.496;2022-08-14T10:24:52;6.05;;;4.32;;
54805;SDS011;62866;55.776;37.496;2022-08-14T10:27:19;6.63;;;4.03;;
54805;SDS011;62866;55.776;37.496;2022-08-14T10:29:50;7.70;;;5.05;;
54805;SDS011;62866;55.776;37.496;2022-08-14T10:32:18;6.10;;;5.10;;
54805;SDS011;62866;55.776;37.496;2022-08-14T10:34:47;7.13;;;4.68;;
54805;SDS011;62866;55.776;37.496;2022-08-14T10:37:14;7.10;;;4.60;;
54805;SDS011;62866;55.776;37.496;2022-08-14T10:39:56;6.60;;;4.07;;
54805;SDS011;62866;55.776;37.496;2022-08-14T10:42:33;4.72;;;4.22;;
54805;SDS011;62866;55.776;37.496;2022-08-14T10:45:00;4.65;;;3.92;;
54805;SDS011;62866;55.776;37.496;2022-08-14T10:47:32;7.95;;;4.40;;
54805;SDS011;62866;55.776;37.496;2022-08-14T10:50:00;5.45;;;4.55;;
54805;SDS011;62866;55.776;37.496;2022-08-14T10:52:30;6.47;;;4.53;;
54805;SDS011;62866;55.776;37.496;2022-08-14T11:00:15;4.85;;;3.95;;
54805;SDS011;62866;55.776;37.496;2022-08-14T11:02:43;8.40;;;5.10;;
54805;SDS011;62866;55.776;37.496;2022-08-14T11:05:13;7.85;;;5.32;;
54805;SDS011;62866;55.776;37.496;2022-08-14T11:10:20;6.82;;;5.60;;
54805;SDS011;62866;55.776;37.496;2022-08-14T11:12:49;5.00;;;4.50;;
54805;SDS011;62866;55.776;37.496;2022-08-14T11:15:19;5.95;;;5.35;;
54805;SDS011;62866;55.776;37.496;2022-08-14T11:17:47;5.85;;;4.95;;
54805;SDS011;62866;55.776;37.496;2022-08-14T11:20:16;8.07;;;4.43;;
54805;SDS011;62866;55.776;37.496;2022-08-14T11:22:44;5.60;;;4.20;;
54805;SDS011;62866;55.776;37.496;2022-08-14T11:25:13;6.32;;;4.55;;
54805;SDS011;62866;55.776;37.496;2022-08-14T11:27:43;5.72;;;4.03;;
54805;SDS011;62866;55.776;37.496;2022-08-14T11:30:15;5.43;;;4.85;;
54805;SDS011;62866;55.776;37.496;2022-08-14T11:32:45;6.03;;;4.82;;
54805;SDS011;62866;55.776;37.496;2022-08-14T11:35:19;10.15;;;4.97;;
54805;SDS011;62866;55.776;37.496;2022-08-14T11:37:55;6.30;;;4.40;;
54805;SDS011;62866;55.776;37.496;2022-08-14T11:40:24;7.60;;;4.65;;
54805;SDS011;62866;55.776;37.496;2022-08-14T11:42:52;6.75;;;4.65;;
54805;SDS011;62866;55.776;37.496;2022-08-14T11:45:20;6.68;;;5.07;;
54805;SDS011;62866;55.776;37.496;2022-08-14T11:47:54;5.95;;;5.30;;
54805;SDS011;62866;55.776;37.496;2022-08-14T11:50:21;5.38;;;4.20;;
54805;SDS011;62866;55.776;37.496;2022-08-14T11:52:49;4.78;;;4.10;;
54805;SDS011;62866;55.776;37.496;2022-08-14T11:55:16;7.22;;;6.00;;
54805;SDS011;62866;55.776;37.496;2022-08-14T11:57:42;7.90;;;5.47;;
54805;SDS011;62866;55.776;37.496;2022-08-14T12:00:10;5.53;;;4.90;;
54805;SDS011;62866;55.776;37.496;2022-08-14T12:02:51;4.93;;;4.43;;
54805;SDS011;62866;55.776;37.496;2022-08-14T12:05:31;8.30;;;4.97;;
54805;SDS011;62866;55.776;37.496;2022-08-14T12:08:01;6.82;;;4.70;;
54805;SDS011;62866;55.776;37.496;2022-08-14T12:10:31;4.70;;;4.28;;
54805;SDS011;62866;55.776;37.496;2022-08-14T12:13:08;4.13;;;3.72;;
54805;SDS011;62866;55.776;37.496;2022-08-14T12:15:46;5.72;;;5.07;;
54805;SDS011;62866;55.776;37.496;2022-08-14T12:18:28;6.22;;;5.63;;
54805;SDS011;62866;55.776;37.496;2022-08-14T12:20:56;6.65;;;5.30;;
54805;SDS011;62866;55.776;37.496;2022-08-14T12:23:22;7.45;;;4.75;;
54805;SDS011;62866;55.776;37.496;2022-08-14T12:25:49;10.50;;;5.18;;
54805;SDS011;62866;55.776;37.496;2022-08-14T12:28:28;9.10;;;5.10;;
54805;SDS011;62866;55.776;37.496;2022-08-14T12:30:53;6.47;;;5.43;;
54805;SDS011;62866;55.776;37.496;2022-08-14T12:35:57;7.57;;;5.25;;
54805;SDS011;62866;55.776;37.496;2022-08-14T12:38:58;6.05;;;5.25;;
54805;SDS011;62866;55.776;37.496;2022-08-14T12:41:17;6.28;;;5.70;;
54805;SDS011;62866;55.776;37.496;2022-08-14T12:43:47;6.18;;;4.72;;
54805;SDS011;62866;55.776;37.496;2022-08-14T12:46:23;7.50;;;5.35;;
54805;SDS011;62866;55.776;37.496;2022-08-14T12:48:51;6.57;;;4.80;;
54805;SDS011;62866;55.776;37.496;2022-08-14T12:51:19;5.32;;;4.35;;
54805;SDS011;62866;55.776;37.496;2022-08-14T12:53:46;7.53;;;5.22;;
54805;SDS011;62866;55.776;37.496;2022-08-14T12:56:16;5.43;;;4.78;;
54805;SDS011;62866;55.776;37.496;2022-08-14T12:58:47;5.75;;;4.25;;
54805;SDS011;62866;55.776;37.496;2022-08-14T13:01:18;6.57;;;4.50;;
54805;SDS011;62866;55.776;37.496;2022-08-14T13:03:45;5.75;;;3.75;;
54805;SDS011;62866;55.776;37.496;2022-08-14T13:06:12;4.93;;;4.38;;
54805;SDS011;62866;55.776;37.496;2022-08-14T13:08:38;7.65;;;4.28;;
54805;SDS011;62866;55.776;37.496;2022-08-14T13:11:10;8.05;;;5.05;;
54805;SDS011;62866;55.776;37.496;2022-08-14T13:13:37;7.93;;;6.28;;
54805;SDS011;62866;55.776;37.496;2022-08-14T13:16:07;8.18;;;5.15;;
54805;SDS011;62866;55.776;37.496;2022-08-14T13:18:33;5.70;;;4.30;;
54805;SDS011;62866;55.776;37.496;2022-08-14T13:21:01;4.75;;;3.80;;
54805;SDS011;62866;55.776;37.496;2022-08-14T13:23:32;7.28;;;4.75;;
54805;SDS011;62866;55.776;37.496;2022-08-14T13:25:59;5.75;;;4.57;;
54805;SDS011;62866;55.776;37.496;2022-08-14T13:28:25;5.07;;;4.57;;
54805;SDS011;62866;55.776;37.496;2022-08-14T13:30:51;4.68;;;4.28;;
54805;SDS011;62866;55.776;37.496;2022-08-14T13:33:17;5.68;;;4.53;;
54805;SDS011;62866;55.776;37.496;2022-08-14T13:35:47;5.35;;;4.70;;
54805;SDS011;62866;55.776;37.496;2022-08-14T13:38:17;4.78;;;4.38;;
54805;SDS011;62866;55.776;37.496;2022-08-14T13:40:45;6.80;;;4.70;;
54805;SDS011;62866;55.776;37.496;2022-08-14T13:43:14;6.95;;;4.43;;
54805;SDS011;62866;55.776;37.496;2022-08-14T13:45:41;7.07;;;4.93;;
54805;SDS011;62866;55.776;37.496;2022-08-14T13:48:10;13.25;;;4.90;;
54805;SDS011;62866;55.776;37.496;2022-08-14T13:50:36;8.00;;;5.18;;
54805;SDS011;62866;55.776;37.496;2022-08-14T13:53:05;6.63;;;4.68;;
54805;SDS011;62866;55.776;37.496;2022-08-14T13:55:33;4.68;;;4.25;;
54805;SDS011;62866;55.776;37.496;2022-08-14T13:58:00;5.88;;;4.03;;
54805;SDS011;62866;55.776;37.496;2022-08-14T14:00:27;4.95;;;3.88;;
54805;SDS011;62866;55.776;37.496;2022-08-14T14:02:53;7.97;;;5.50;;
54805;SDS011;62866;55.776;37.496;2022-08-14T14:05:20;10.05;;;5.90;;
54805;SDS011;62866;55.776;37.496;2022-08-14T14:07:48;5.78;;;4.63;;
54805;SDS011;62866;55.776;37.496;2022-08-14T14:10:17;7.28;;;5.00;;
54805;SDS011;62866;55.776;37.496;2022-08-14T14:12:45;7.55;;;4.80;;
54805;SDS011;62866;55.776;37.496;2022-08-14T14:15:14;10.85;;;5.78;;
54805;SDS011;62866;55.776;37.496;2022-08-14T14:17:41;4.65;;;4.25;;
54805;SDS011;62866;55.776;37.496;2022-08-14T14:20:12;5.85;;;5.28;;
54805;SDS011;62866;55.776;37.496;2022-08-14T14:22:40;7.85;;;4.90;;
54805;SDS011;62866;55.776;37.496;2022-08-14T14:25:10;6.10;;;4.93;;
54805;SDS011;62866;55.776;37.496;2022-08-14T14:27:39;7.28;;;4.70;;
54805;SDS011;62866;55.776;37.496;2022-08-14T14:30:07;4.60;;;4.10;;
54805;SDS011;62866;55.776;37.496;2022-08-14T14:32:33;5.53;;;4.13;;
54805;SDS011;62866;55.776;37.496;2022-08-14T14:35:08;7.72;;;4.05;;
54805;SDS011;62866;55.776;37.496;2022-08-14T14:37:37;4.65;;;4.07;;
54805;SDS011;62866;55.776;37.496;2022-08-14T14:40:04;4.07;;;3.70;;
54805;SDS011;62866;55.776;37.496;2022-08-14T14:42:31;3.97;;;3.50;;
54805;SDS011;62866;55.776;37.496;2022-08-14T14:45:02;5.97;;;4.75;;
54805;SDS011;62866;55.776;37.496;2022-08-14T14:47:32;5.00;;;3.97;;
54805;SDS011;62866;55.776;37.496;2022-08-14T14:49:59;4.22;;;3.83;;
54805;SDS011;62866;55.776;37.496;2022-08-14T14:52:26;7.35;;;4.65;;
54805;SDS011;62866;55.776;37.496;2022-08-14T14:54:53;5.45;;;4.20;;
54805;SDS011;62866;55.776;37.496;2022-08-14T14:57:20;4.50;;;3.70;;
54805;SDS011;62866;55.776;37.496;2022-08-14T14:59:46;4.25;;;3.85;;
54805;SDS011;62866;55.776;37.496;2022-08-14T15:02:14;4.95;;;4.40;;
54805;SDS011;62866;55.776;37.496;2022-08-14T15:04:51;7.05;;;3.78;;
54805;SDS011;62866;55.776;37.496;2022-08-14T15:07:16;4.80;;;4.40;;
54805;SDS011;62866;55.776;37.496;2022-08-14T15:09:44;4.53;;;3.60;;